Time;durP1;ratioP1;P1;durP2;ratioP2;P2;SDS_P1;SDS_P2;PMS_P1;PMS_P2;Temp;Humidity;BMP_temperature;BMP_pressure;BME280_temperature;BME280_humidity;BME280_pressure;Samples;Min_cycle;Max_cycle;Signal;HPM_P1;HPM_P2
2022/01/14 00:02:21;;;;;;;46.47;11.43;;;1.60;99.90;;;;;;5048532;28;20194;-66
2022/01/14 00:04:48;;;;;;;34.10;10.03;;;1.70;99.90;;;;;;5045513;28;20209;-66
2022/01/14 00:07:15;;;;;;;30.60;10.10;;;1.60;99.90;;;;;;5048855;28;20193;-66
2022/01/14 00:09:42;;;;;;;25.40;10.20;;;1.60;99.90;;;;;;5042023;28;20490;-66
2022/01/14 00:12:17;;;;;;;25.80;10.40;;;1.60;99.90;;;;;;5046765;28;20201;-66
2022/01/14 00:14:56;;;;;;;34.50;10.53;;;1.50;99.90;;;;;;5044901;28;20702;-66
2022/01/14 00:17:23;;;;;;;36.17;11.03;;;1.40;99.90;;;;;;5041552;28;20237;-66
2022/01/14 00:19:58;;;;;;;24.60;9.67;;;1.50;99.90;;;;;;5034158;28;20196;-66
2022/01/14 00:22:27;;;;;;;53.90;11.10;;;1.50;99.90;;;;;;5046799;28;20204;-66
2022/01/14 00:33:05;;;;;;;29.33;11.50;;;1.70;99.90;;;;;;5048260;28;20218;-66
2022/01/14 00:35:33;;;;;;;25.07;10.53;;;1.90;99.90;;;;;;5047817;28;20204;-66
2022/01/14 00:38:00;;;;;;;28.37;11.83;;;1.80;99.90;;;;;;5042409;28;20202;-66
2022/01/14 00:40:26;;;;;;;28.20;10.93;;;1.70;99.90;;;;;;5044566;28;20556;-66
2022/01/14 00:42:54;;;;;;;27.97;11.10;;;1.80;99.90;;;;;;5048292;28;20201;-66
2022/01/14 00:45:21;;;;;;;31.27;11.87;;;1.80;99.90;;;;;;5046909;28;20198;-66
2022/01/14 00:47:48;;;;;;;24.33;11.40;;;2.00;99.90;;;;;;5045940;28;20206;-66
2022/01/14 00:50:17;;;;;;;26.33;10.93;;;1.90;99.90;;;;;;5056791;28;20192;-66
2022/01/14 00:52:45;;;;;;;33.63;12.60;;;2.10;99.90;;;;;;5047351;28;20203;-66
2022/01/14 00:55:15;;;;;;;33.40;11.40;;;2.00;99.90;;;;;;5043416;28;20217;-66
2022/01/14 01:00:23;;;;;;;26.50;11.63;;;1.90;99.90;;;;;;5047864;28;20652;-66
2022/01/14 01:02:49;;;;;;;24.97;11.20;;;2.00;99.90;;;;;;5043966;28;20195;-66
2022/01/14 01:05:18;;;;;;;28.33;10.83;;;2.10;99.90;;;;;;5041734;28;20194;-66
2022/01/14 01:07:55;;;;;;;34.27;11.27;;;2.20;99.90;;;;;;5045971;28;20195;-66
2022/01/14 01:10:23;;;;;;;24.53;9.77;;;2.30;99.90;;;;;;5045388;28;20199;-66
2022/01/14 01:12:54;;;;;;;28.47;9.23;;;2.30;99.90;;;;;;5046156;28;20631;-66
2022/01/14 01:15:21;;;;;;;29.07;10.37;;;2.30;99.90;;;;;;5042980;28;20206;-66
2022/01/14 01:17:48;;;;;;;27.43;9.47;;;2.20;99.90;;;;;;5039860;28;20186;-66
2022/01/14 01:20:18;;;;;;;26.07;10.70;;;2.10;99.90;;;;;;5042203;28;20203;-66
2022/01/14 01:22:49;;;;;;;42.47;10.20;;;2.00;99.90;;;;;;5046006;28;20198;-66
2022/01/14 01:25:21;;;;;;;27.10;9.80;;;1.90;99.90;;;;;;5042932;28;20195;-66
2022/01/14 01:27:48;;;;;;;43.87;10.10;;;1.80;99.90;;;;;;5042502;28;20198;-66
2022/01/14 01:33:05;;;;;;;36.27;10.27;;;1.50;99.90;;;;;;5034688;28;20260;-66
2022/01/14 01:35:32;;;;;;;22.50;9.83;;;1.70;99.90;;;;;;5040306;28;20199;-66
2022/01/14 01:38:00;;;;;;;25.87;9.30;;;1.60;99.90;;;;;;5040470;28;20197;-66
2022/01/14 01:40:27;;;;;;;24.43;10.27;;;1.60;99.90;;;;;;5046076;28;20207;-66
2022/01/14 01:42:57;;;;;;;22.07;8.97;;;1.50;99.90;;;;;;5044144;28;20209;-66
2022/01/14 01:45:26;;;;;;;20.17;9.80;;;1.50;99.90;;;;;;5047465;28;20190;-66
2022/01/14 01:47:54;;;;;;;34.10;9.37;;;1.60;99.90;;;;;;5043960;28;20219;-66
2022/01/14 01:50:26;;;;;;;37.77;10.37;;;1.50;99.90;;;;;;5047348;28;20195;-66
2022/01/14 01:52:53;;;;;;;27.23;8.93;;;1.30;99.90;;;;;;5039613;28;20197;-66
2022/01/14 01:55:22;;;;;;;21.83;8.73;;;1.40;99.90;;;;;;5044276;28;20722;-66
2022/01/14 01:57:49;;;;;;;19.70;9.33;;;1.60;99.90;;;;;;5047764;28;20217;-66
2022/01/14 02:00:24;;;;;;;35.13;8.80;;;1.50;99.90;;;;;;5040094;28;20199;-66
2022/01/14 02:02:51;;;;;;;22.67;8.70;;;1.60;99.90;;;;;;5044254;28;20200;-66
2022/01/14 02:05:18;;;;;;;31.83;9.07;;;1.60;99.90;;;;;;5046296;28;20202;-66
2022/01/14 02:07:45;;;;;;;21.90;7.77;;;1.50;99.90;;;;;;5044043;28;20208;-66
2022/01/14 02:10:12;;;;;;;33.10;8.27;;;1.40;99.90;;;;;;5039826;28;20196;-66
2022/01/14 02:12:49;;;;;;;20.17;9.13;;;1.40;99.90;;;;;;5045351;28;20198;-66
2022/01/14 02:15:29;;;;;;;18.60;8.07;;;1.40;99.90;;;;;;5039289;28;20219;-66
2022/01/14 02:23:27;;;;;;;41.93;9.13;;;1.60;99.90;;;;;;5042464;28;20237;-66
2022/01/14 02:25:54;;;;;;;16.00;8.10;;;1.70;99.90;;;;;;5041415;28;20206;-66
2022/01/14 02:28:20;;;;;;;20.97;7.50;;;1.70;99.90;;;;;;5039593;28;20219;-66
2022/01/14 02:30:50;;;;;;;19.67;8.63;;;1.60;99.90;;;;;;5042968;28;20198;-66
2022/01/14 02:33:18;;;;;;;19.33;7.93;;;1.50;99.90;;;;;;5045406;28;20563;-66
2022/01/14 02:35:47;;;;;;;16.47;7.90;;;1.30;99.90;;;;;;5042597;28;20197;-66
2022/01/14 02:38:16;;;;;;;18.70;8.00;;;1.30;99.90;;;;;;5043843;28;20198;-66
2022/01/14 02:40:44;;;;;;;15.43;7.20;;;1.30;99.90;;;;;;5044319;28;20203;-66
2022/01/14 02:43:14;;;;;;;20.70;7.47;;;1.40;99.90;;;;;;5046111;28;20699;-66
2022/01/14 02:45:48;;;;;;;22.13;7.30;;;1.30;99.90;;;;;;5041753;28;20194;-66
2022/01/14 02:48:17;;;;;;;16.43;7.20;;;1.30;99.90;;;;;;5040864;28;20187;-66
2022/01/14 02:53:42;;;;;;;46.67;7.07;;;1.10;99.90;;;;;;5044062;28;20223;-66
2022/01/14 02:56:15;;;;;;;22.13;6.70;;;0.90;99.90;;;;;;5048854;28;20194;-66
2022/01/14 02:58:43;;;;;;;19.10;7.50;;;0.90;99.90;;;;;;5045980;28;20204;-66
2022/01/14 03:01:13;;;;;;;32.17;8.10;;;1.10;99.90;;;;;;5046112;28;20198;-66
2022/01/14 03:03:43;;;;;;;29.97;7.20;;;1.10;99.90;;;;;;5044301;28;20746;-67
2022/01/14 03:06:11;;;;;;;56.07;7.30;;;1.10;99.90;;;;;;5047275;28;20201;-66
2022/01/14 03:08:42;;;;;;;15.03;7.17;;;0.90;99.90;;;;;;5044608;28;20245;-66
2022/01/14 03:11:12;;;;;;;37.07;8.10;;;0.90;99.90;;;;;;5045818;28;20208;-66
2022/01/14 03:13:39;;;;;;;38.73;7.73;;;0.90;99.90;;;;;;5043050;28;20220;-66
2022/01/14 03:16:07;;;;;;;40.50;8.67;;;0.80;99.90;;;;;;5046748;28;20191;-66
2022/01/14 03:18:44;;;;;;;20.27;8.07;;;0.70;99.90;;;;;;5046926;28;20202;-66
2022/01/14 03:21:12;;;;;;;21.83;8.27;;;0.80;99.90;;;;;;5039343;28;20227;-66
2022/01/14 03:23:47;;;;;;;25.90;8.03;;;1.00;99.90;;;;;;5043521;28;20212;-66
2022/01/14 03:26:21;;;;;;;27.73;7.60;;;1.10;99.90;;;;;;5045570;28;20516;-66
2022/01/14 03:28:48;;;;;;;29.47;7.87;;;1.00;99.90;;;;;;5042474;28;20660;-66
2022/01/14 03:31:15;;;;;;;32.10;8.17;;;1.00;99.90;;;;;;5041039;28;20710;-67
2022/01/14 03:33:42;;;;;;;22.10;7.00;;;1.00;99.90;;;;;;5046304;28;20232;-66
2022/01/14 03:36:10;;;;;;;26.40;7.70;;;1.00;99.90;;;;;;5046312;28;20199;-67
2022/01/14 03:38:37;;;;;;;31.73;7.97;;;1.10;99.90;;;;;;5036478;28;20206;-66
2022/01/14 03:41:04;;;;;;;18.20;8.03;;;1.20;99.90;;;;;;5039697;28;20200;-67
2022/01/14 03:43:32;;;;;;;23.30;7.37;;;1.20;99.90;;;;;;5041627;28;20228;-67
2022/01/14 03:45:58;;;;;;;51.07;8.67;;;1.30;99.90;;;;;;5045337;28;20198;-67
2022/01/14 03:48:25;;;;;;;18.40;7.43;;;1.20;99.90;;;;;;5043709;28;20192;-67
2022/01/14 03:50:52;;;;;;;57.47;8.10;;;1.10;99.90;;;;;;5037776;28;20256;-67
2022/01/14 03:53:19;;;;;;;50.90;8.10;;;0.90;99.90;;;;;;5043782;28;20688;-67
2022/01/14 03:55:46;;;;;;;32.63;7.80;;;0.70;99.90;;;;;;5041890;28;20231;-67
2022/01/14 03:58:36;;;;;;;41.10;7.67;;;0.60;99.90;;;;;;5041418;28;20192;-67
2022/01/14 04:01:03;;;;;;;15.47;7.30;;;0.70;99.90;;;;;;5043651;28;20282;-67
2022/01/14 04:03:30;;;;;;;47.27;8.80;;;0.70;99.90;;;;;;5046349;28;20258;-67
2022/01/14 04:05:57;;;;;;;17.40;7.43;;;0.80;99.90;;;;;;5040535;28;20467;-67
2022/01/14 04:08:24;;;;;;;16.40;8.10;;;0.90;99.90;;;;;;5049208;28;20198;-67
2022/01/14 04:10:53;;;;;;;20.47;7.80;;;0.90;99.90;;;;;;5046953;28;20761;-67
2022/01/14 04:13:34;;;;;;;20.97;8.03;;;1.10;99.90;;;;;;5047192;28;20748;-67
2022/01/14 04:16:00;;;;;;;32.33;7.40;;;1.20;99.90;;;;;;5046721;28;20208;-67
2022/01/14 04:18:27;;;;;;;20.47;7.60;;;1.10;99.90;;;;;;5053855;28;20197;-67
2022/01/14 04:20:54;;;;;;;18.20;7.83;;;1.00;99.90;;;;;;5039259;28;20197;-66
2022/01/14 04:23:25;;;;;;;23.17;7.73;;;1.00;99.90;;;;;;5048414;28;20211;-66
2022/01/14 04:25:53;;;;;;;21.03;7.80;;;1.10;99.90;;;;;;5050075;28;20711;-66
2022/01/14 04:28:22;;;;;;;31.33;7.77;;;0.90;99.90;;;;;;5053909;28;20647;-67
2022/01/14 04:30:54;;;;;;;20.53;8.57;;;0.80;99.90;;;;;;5047540;28;20523;-67
2022/01/14 04:33:23;;;;;;;17.03;7.63;;;0.80;99.90;;;;;;5044113;28;20221;-67
2022/01/14 04:35:51;;;;;;;21.30;7.77;;;0.80;99.90;;;;;;5046582;28;20216;-67
2022/01/14 04:38:18;;;;;;;26.13;7.57;;;0.90;99.90;;;;;;5055373;28;20192;-67
2022/01/14 04:40:44;;;;;;;22.67;7.63;;;1.00;99.90;;;;;;5047664;28;20205;-66
2022/01/14 04:43:13;;;;;;;19.20;8.00;;;1.00;99.90;;;;;;5052510;28;20218;-67
2022/01/14 04:45:43;;;;;;;19.93;7.87;;;1.00;99.90;;;;;;5049085;28;20204;-67
2022/01/14 04:48:12;;;;;;;15.57;7.23;;;1.00;99.90;;;;;;5047113;28;20657;-66
2022/01/14 04:50:39;;;;;;;14.57;7.43;;;1.00;99.90;;;;;;5044984;28;21569;-67
2022/01/14 04:53:09;;;;;;;29.57;6.90;;;0.90;99.90;;;;;;5047558;28;20206;-67
2022/01/14 04:55:36;;;;;;;18.93;7.37;;;0.80;99.90;;;;;;5043234;28;20219;-67
2022/01/14 04:58:04;;;;;;;29.87;6.83;;;0.70;99.90;;;;;;5037995;28;20214;-67
2022/01/14 05:00:31;;;;;;;17.77;7.30;;;0.70;99.90;;;;;;5043725;28;20200;-67
2022/01/14 05:02:58;;;;;;;14.60;6.87;;;0.90;99.90;;;;;;5046103;28;20200;-67
2022/01/14 05:05:28;;;;;;;16.97;6.90;;;0.90;99.90;;;;;;5042579;28;20233;-67
2022/01/14 05:07:55;;;;;;;41.03;7.43;;;0.90;99.90;;;;;;5048104;28;20195;-67
2022/01/14 05:12:51;;;;;;;20.13;7.53;;;1.00;99.90;;;;;;5050371;28;20206;-67
2022/01/14 05:15:19;;;;;;;24.77;7.33;;;0.90;99.90;;;;;;5040838;28;20715;-68
2022/01/14 05:17:47;;;;;;;28.60;6.93;;;0.90;99.90;;;;;;5046129;28;20681;-67
2022/01/14 05:20:15;;;;;;;25.07;7.07;;;0.90;99.90;;;;;;5047075;28;20198;-67
2022/01/14 05:22:43;;;;;;;17.40;7.03;;;0.80;99.90;;;;;;5045235;28;20293;-67
2022/01/14 05:25:13;;;;;;;31.77;7.13;;;0.80;99.90;;;;;;5044861;28;20218;-67
2022/01/14 05:27:41;;;;;;;22.77;6.03;;;0.90;99.90;;;;;;5046091;28;20198;-67
2022/01/14 05:30:10;;;;;;;15.00;6.80;;;0.50;99.90;;;;;;5042231;28;20203;-67
2022/01/14 05:32:45;;;;;;;31.57;7.17;;;0.60;99.90;;;;;;5046262;28;20191;-67
2022/01/14 05:35:17;;;;;;;20.03;7.17;;;0.60;99.90;;;;;;5045036;28;20218;-67
2022/01/14 05:37:43;;;;;;;22.23;6.40;;;0.70;99.90;;;;;;5048738;28;20210;-67
2022/01/14 05:40:11;;;;;;;33.23;6.07;;;0.50;99.90;;;;;;5047618;28;20198;-67
2022/01/14 05:42:38;;;;;;;18.17;6.47;;;0.50;99.90;;;;;;5046198;28;20202;-68
2022/01/14 05:45:07;;;;;;;45.17;7.83;;;0.50;99.90;;;;;;5044914;28;20211;-67
2022/01/14 05:47:35;;;;;;;29.73;7.00;;;0.70;99.90;;;;;;5048436;28;20199;-67
2022/01/14 05:50:04;;;;;;;29.70;6.77;;;0.70;99.90;;;;;;5047245;28;20198;-68
2022/01/14 05:52:31;;;;;;;25.87;7.13;;;0.60;99.90;;;;;;5046467;28;20203;-68
2022/01/14 05:54:58;;;;;;;17.07;7.20;;;0.60;99.90;;;;;;5045357;28;20272;-67
2022/01/14 05:57:24;;;;;;;27.60;7.33;;;0.60;99.90;;;;;;5046713;28;20206;-67
2022/01/14 05:59:54;;;;;;;16.43;7.30;;;0.70;99.90;;;;;;5044671;28;20199;-67
2022/01/14 06:02:20;;;;;;;24.47;7.53;;;0.70;99.90;;;;;;5044215;28;20191;-67
2022/01/14 06:04:47;;;;;;;17.40;6.63;;;0.70;99.90;;;;;;5048430;28;20223;-67
2022/01/14 06:07:14;;;;;;;17.40;6.93;;;0.60;99.90;;;;;;5046348;28;20195;-68
2022/01/14 06:09:40;;;;;;;20.43;7.53;;;0.60;99.90;;;;;;5047368;28;20210;-68
2022/01/14 06:12:08;;;;;;;18.03;6.77;;;0.70;99.90;;;;;;5046043;28;20199;-68
2022/01/14 06:14:38;;;;;;;14.40;5.90;;;0.70;99.90;;;;;;5048580;28;20222;-68
2022/01/14 06:17:05;;;;;;;14.27;6.23;;;0.70;99.90;;;;;;5046875;28;20195;-68
2022/01/14 06:19:31;;;;;;;12.47;6.67;;;0.60;99.90;;;;;;5051469;28;20556;-68
2022/01/14 06:21:59;;;;;;;16.13;6.10;;;0.60;99.90;;;;;;5050635;28;20196;-68
2022/01/14 06:24:26;;;;;;;16.90;6.53;;;0.60;99.90;;;;;;5046001;28;20707;-65
2022/01/14 06:26:52;;;;;;;14.90;5.97;;;0.70;99.90;;;;;;5044371;28;20255;-68
2022/01/14 06:29:19;;;;;;;16.50;6.10;;;0.70;99.90;;;;;;5045201;28;20191;-68
2022/01/14 06:31:46;;;;;;;17.70;7.07;;;0.70;99.90;;;;;;5044939;28;20204;-68
2022/01/14 06:34:14;;;;;;;12.90;6.30;;;0.90;99.90;;;;;;5041069;28;20215;-68
2022/01/14 06:36:44;;;;;;;18.37;6.83;;;0.80;99.90;;;;;;5039613;28;20201;-68
2022/01/14 06:39:11;;;;;;;12.63;6.47;;;0.80;99.90;;;;;;5048325;28;20829;-67
2022/01/14 06:41:38;;;;;;;12.60;6.20;;;0.90;99.90;;;;;;5047374;28;20656;-69
2022/01/14 06:44:06;;;;;;;17.33;6.90;;;0.80;99.90;;;;;;5046653;28;20231;-67
2022/01/14 06:46:34;;;;;;;18.87;6.97;;;0.90;99.90;;;;;;5044852;28;20290;-69
2022/01/14 06:49:01;;;;;;;15.10;6.97;;;0.90;99.90;;;;;;5047513;28;20203;-68
2022/01/14 06:51:27;;;;;;;12.47;6.33;;;1.00;99.90;;;;;;5051320;28;20200;-68
2022/01/14 06:53:54;;;;;;;17.60;6.37;;;0.90;99.90;;;;;;5038941;28;20550;-68
2022/01/14 06:56:21;;;;;;;14.87;6.33;;;0.80;99.90;;;;;;5046454;28;20212;-69
2022/01/14 06:58:47;;;;;;;19.03;6.37;;;0.90;99.90;;;;;;5043382;28;20225;-66
2022/01/14 07:01:14;;;;;;;20.13;6.43;;;0.90;99.90;;;;;;5028338;28;20570;-69
2022/01/14 07:03:41;;;;;;;16.73;5.67;;;0.90;99.90;;;;;;5033753;28;20239;-69
2022/01/14 07:06:08;;;;;;;20.87;7.10;;;0.90;99.90;;;;;;5042050;28;20318;-69
2022/01/14 07:08:35;;;;;;;13.00;6.67;;;1.00;99.90;;;;;;5045182;28;20212;-69
2022/01/14 07:11:03;;;;;;;40.83;7.00;;;1.00;99.90;;;;;;5044901;28;20203;-69
2022/01/14 07:13:30;;;;;;;17.97;6.70;;;1.00;99.90;;;;;;5040317;28;20231;-69
2022/01/14 07:16:02;;;;;;;12.13;5.50;;;1.00;99.90;;;;;;5042545;28;20885;-69
2022/01/14 07:18:28;;;;;;;20.23;6.50;;;1.00;99.90;;;;;;5043710;28;20194;-69
2022/01/14 07:20:55;;;;;;;17.63;6.93;;;0.90;99.90;;;;;;5043977;28;20194;-69
2022/01/14 07:23:22;;;;;;;16.80;6.57;;;0.90;99.90;;;;;;5044183;28;20219;-69
2022/01/14 07:25:48;;;;;;;15.33;6.63;;;0.90;99.90;;;;;;5046542;28;20202;-68
2022/01/14 07:28:15;;;;;;;16.67;6.43;;;0.90;99.90;;;;;;5042018;28;20209;-64
2022/01/14 07:30:42;;;;;;;14.53;5.77;;;0.80;99.90;;;;;;5030884;28;20215;-64
2022/01/14 07:33:08;;;;;;;33.17;6.70;;;0.90;99.90;;;;;;5038963;28;20219;-64
2022/01/14 07:35:38;;;;;;;16.83;6.30;;;0.70;99.90;;;;;;5035774;28;20223;-66
2022/01/14 07:38:04;;;;;;;13.20;6.30;;;0.90;99.90;;;;;;5040627;28;20229;-63
2022/01/14 07:40:31;;;;;;;18.03;6.47;;;0.90;99.90;;;;;;5044904;28;20196;-63
2022/01/14 07:42:58;;;;;;;14.10;6.63;;;0.90;99.90;;;;;;5043717;28;20202;-63
2022/01/14 07:45:25;;;;;;;15.27;6.80;;;0.80;99.90;;;;;;5042361;28;20214;-64
2022/01/14 07:47:51;;;;;;;12.93;6.30;;;0.90;99.90;;;;;;5046415;28;20212;-63
2022/01/14 07:50:24;;;;;;;30.00;6.70;;;0.80;99.90;;;;;;5041469;28;20293;-64
2022/01/14 07:52:50;;;;;;;20.40;6.90;;;0.80;99.90;;;;;;5041848;28;20196;-64
2022/01/14 07:55:17;;;;;;;15.47;6.13;;;0.80;99.90;;;;;;5049149;28;20218;-63
2022/01/14 07:57:44;;;;;;;19.40;5.97;;;0.90;99.90;;;;;;5037979;28;20203;-63
2022/01/14 08:00:12;;;;;;;14.67;6.13;;;0.90;99.90;;;;;;5038620;28;20296;-63
2022/01/14 08:02:38;;;;;;;10.83;5.77;;;0.80;99.90;;;;;;5039967;28;20733;-64
2022/01/14 08:05:06;;;;;;;24.97;6.20;;;0.80;99.90;;;;;;5035538;28;20562;-64
2022/01/14 08:07:34;;;;;;;11.17;5.70;;;0.90;99.90;;;;;;5044651;28;20203;-65
2022/01/14 08:10:01;;;;;;;14.50;5.90;;;0.90;99.90;;;;;;5041627;28;20202;-62
2022/01/14 08:12:28;;;;;;;21.13;6.57;;;0.80;99.90;;;;;;5050409;28;20665;-62
2022/01/14 08:14:54;;;;;;;24.57;5.23;;;0.80;99.90;;;;;;5042076;28;20242;-63
2022/01/14 08:17:21;;;;;;;20.97;5.63;;;0.80;99.90;;;;;;5044470;28;20191;-63
2022/01/14 08:19:49;;;;;;;15.83;4.93;;;0.80;99.90;;;;;;5043809;28;20210;-62
2022/01/14 08:22:15;;;;;;;20.23;6.50;;;0.80;99.90;;;;;;5046040;28;20204;-62
2022/01/14 08:24:42;;;;;;;19.33;6.50;;;0.80;99.90;;;;;;5046185;28;20230;-63
2022/01/14 08:27:09;;;;;;;11.83;5.67;;;0.80;99.90;;;;;;5047557;28;20204;-64
2022/01/14 08:29:35;;;;;;;20.47;6.83;;;0.90;99.90;;;;;;5042080;28;20203;-64
2022/01/14 08:32:03;;;;;;;12.67;5.90;;;1.00;99.90;;;;;;5041866;28;20561;-64
2022/01/14 08:34:29;;;;;;;13.73;6.40;;;1.00;99.90;;;;;;5037690;28;20219;-72
2022/01/14 08:36:57;;;;;;;13.20;6.33;;;1.00;99.90;;;;;;5047412;28;20229;-65
2022/01/14 08:39:24;;;;;;;13.23;5.87;;;1.00;99.90;;;;;;5041277;28;20679;-65
2022/01/14 08:41:51;;;;;;;11.60;5.57;;;1.00;99.90;;;;;;5048477;28;20213;-65
2022/01/14 08:44:18;;;;;;;10.13;5.53;;;1.00;99.90;;;;;;5043114;28;20220;-65
2022/01/14 08:46:50;;;;;;;11.20;5.87;;;1.10;99.90;;;;;;5044609;28;20620;-65
2022/01/14 08:49:17;;;;;;;18.07;5.53;;;0.90;99.90;;;;;;5054217;28;20208;-65
2022/01/14 08:51:44;;;;;;;15.20;5.60;;;0.90;99.90;;;;;;5055785;28;20205;-65
2022/01/14 08:54:11;;;;;;;21.17;5.40;;;1.00;99.90;;;;;;5056321;28;20210;-65
2022/01/14 08:56:38;;;;;;;18.30;5.43;;;1.00;99.90;;;;;;5051842;28;20222;-65
2022/01/14 08:59:05;;;;;;;16.27;5.27;;;1.00;99.90;;;;;;5052390;28;20219;-65
2022/01/14 09:01:32;;;;;;;10.57;5.67;;;1.10;99.90;;;;;;5039233;28;20294;-73
2022/01/14 09:04:00;;;;;;;15.27;5.93;;;1.00;99.90;;;;;;5041176;28;20219;-66
2022/01/14 09:06:27;;;;;;;12.77;5.60;;;1.20;99.90;;;;;;5049152;28;20203;-66
2022/01/14 09:08:54;;;;;;;12.40;5.70;;;1.10;99.90;;;;;;5045994;28;20290;-66
2022/01/14 09:11:21;;;;;;;14.63;5.50;;;1.20;99.90;;;;;;5050913;28;20665;-66
2022/01/14 09:13:47;;;;;;;22.37;6.37;;;1.30;99.90;;;;;;5047553;28;20859;-66
2022/01/14 09:16:17;;;;;;;11.63;5.73;;;1.10;99.90;;;;;;5047858;28;20751;-66
2022/01/14 09:18:44;;;;;;;32.47;5.97;;;1.00;99.90;;;;;;5043903;28;20211;-66
2022/01/14 09:21:10;;;;;;;11.73;6.00;;;1.10;99.90;;;;;;5061666;28;20202;-66
2022/01/14 09:23:37;;;;;;;17.43;5.87;;;1.20;99.90;;;;;;5052882;28;20687;-66
2022/01/14 09:26:04;;;;;;;11.93;6.23;;;1.30;99.90;;;;;;5049509;28;20806;-66
2022/01/14 09:28:33;;;;;;;24.63;6.10;;;1.40;99.90;;;;;;5046579;28;20206;-66
2022/01/14 09:30:59;;;;;;;9.87;5.57;;;1.30;99.90;;;;;;5048334;28;20211;-66
2022/01/14 09:33:26;;;;;;;13.00;6.20;;;1.40;99.90;;;;;;5045733;28;20224;-66
2022/01/14 09:35:53;;;;;;;12.43;5.93;;;1.50;99.90;;;;;;5058624;28;20221;-66
2022/01/14 09:38:22;;;;;;;13.23;5.97;;;1.50;99.90;;;;;;5040890;28;20201;-70
2022/01/14 09:40:50;;;;;;;16.07;6.20;;;1.60;99.90;;;;;;5042510;28;20224;-65
2022/01/14 09:43:17;;;;;;;26.80;6.73;;;1.60;99.90;;;;;;5043680;28;20239;-67
2022/01/14 09:46:00;;;;;;;15.97;5.57;;;1.60;99.90;;;;;;5040167;28;20545;-66
2022/01/14 09:48:27;;;;;;;11.80;5.80;;;1.40;99.90;;;;;;5052194;28;20208;-66
2022/01/14 09:50:56;;;;;;;10.33;6.27;;;1.50;99.90;;;;;;5044878;28;20209;-66
2022/01/14 09:53:25;;;;;;;11.17;5.93;;;1.80;99.90;;;;;;5041610;28;20704;-66
2022/01/14 09:55:52;;;;;;;9.80;5.73;;;2.00;99.90;;;;;;5051766;28;20221;-67
2022/01/14 09:58:22;;;;;;;14.77;5.50;;;2.20;99.90;;;;;;5051587;28;20292;-66
2022/01/14 10:00:48;;;;;;;11.03;6.00;;;2.40;99.90;;;;;;5054485;28;20671;-65
2022/01/14 10:03:23;;;;;;;10.43;5.93;;;2.50;99.90;;;;;;5037420;28;20738;-66
2022/01/14 10:05:55;;;;;;;12.23;5.30;;;2.70;99.90;;;;;;5046840;28;20209;-66
2022/01/14 10:08:25;;;;;;;11.67;5.93;;;2.70;99.90;;;;;;5036247;28;20210;-66
2022/01/14 10:10:55;;;;;;;10.90;5.30;;;2.80;99.90;;;;;;5044708;28;20221;-66
2022/01/14 10:13:24;;;;;;;10.30;5.87;;;2.80;99.90;;;;;;5041773;28;20215;-66
2022/01/14 10:16:01;;;;;;;12.73;5.57;;;3.10;99.90;;;;;;5045493;28;20690;-66
2022/01/14 10:18:28;;;;;;;10.83;5.60;;;3.20;99.90;;;;;;5038661;28;20244;-67
2022/01/14 10:21:01;;;;;;;10.80;5.90;;;3.40;99.90;;;;;;5030038;28;21239;-66
2022/01/14 10:23:44;;;;;;;9.97;5.60;;;3.40;99.90;;;;;;5032717;28;20710;-65
2022/01/14 10:26:12;;;;;;;11.17;6.10;;;3.50;99.90;;;;;;5037300;28;20680;-65
2022/01/14 10:28:40;;;;;;;11.87;6.00;;;3.50;99.90;;;;;;5039384;28;20208;-66
2022/01/14 10:31:07;;;;;;;10.97;5.77;;;3.60;99.90;;;;;;5042846;28;20214;-66
2022/01/14 10:33:33;;;;;;;9.63;5.33;;;3.50;99.90;;;;;;5044072;28;20229;-65
2022/01/14 10:36:00;;;;;;;10.63;6.10;;;3.40;99.90;;;;;;5040758;28;20219;-65
2022/01/14 10:38:37;;;;;;;9.90;5.07;;;3.50;99.90;;;;;;5037821;28;20731;-65
2022/01/14 10:41:09;;;;;;;10.97;5.97;;;3.30;99.90;;;;;;5044187;28;20191;-64
2022/01/14 10:43:41;;;;;;;8.70;5.87;;;3.20;99.90;;;;;;5041584;28;20222;-65
2022/01/14 10:46:10;;;;;;;10.97;5.97;;;3.40;99.90;;;;;;5040355;28;20213;-66
2022/01/14 10:48:39;;;;;;;12.57;5.77;;;3.50;99.90;;;;;;5044729;28;20273;-67
2022/01/14 10:51:12;;;;;;;14.00;5.90;;;3.80;99.90;;;;;;5044731;28;20200;-69
2022/01/14 10:53:44;;;;;;;11.77;5.70;;;3.90;99.90;;;;;;5058162;28;20224;-66
2022/01/14 10:56:14;;;;;;;11.00;5.67;;;4.00;99.90;;;;;;5043611;28;20329;-65
2022/01/14 10:58:43;;;;;;;13.10;6.07;;;3.90;99.90;;;;;;5048137;28;20831;-67
2022/01/14 11:01:20;;;;;;;10.60;5.27;;;3.80;99.90;;;;;;5046064;28;20208;-66
2022/01/14 11:03:52;;;;;;;9.50;5.40;;;3.60;99.90;;;;;;5037863;28;20221;-66
2022/01/14 11:06:38;;;;;;;11.03;5.50;;;3.50;99.90;;;;;;5042657;28;20289;-67
2022/01/14 11:09:06;;;;;;;10.37;5.77;;;3.00;99.90;;;;;;5044816;28;20205;-67
2022/01/14 11:11:35;;;;;;;11.80;6.33;;;3.10;99.90;;;;;;5046837;28;20645;-67
2022/01/14 11:14:04;;;;;;;11.33;5.70;;;3.30;99.90;;;;;;5047736;28;20627;-69
2022/01/14 11:16:32;;;;;;;13.77;6.17;;;3.30;99.90;;;;;;5048687;28;20255;-68
2022/01/14 11:19:01;;;;;;;10.73;6.13;;;3.50;99.90;;;;;;5052709;28;20274;-66
2022/01/14 11:24:19;;;;;;;13.73;5.90;;;4.00;99.90;;;;;;5053064;28;20235;-66
2022/01/14 11:26:48;;;;;;;10.90;6.03;;;4.10;99.90;;;;;;5047361;28;20207;-66
2022/01/14 11:29:17;;;;;;;10.77;6.43;;;4.10;99.90;;;;;;5034475;28;20214;-68
2022/01/14 11:31:44;;;;;;;10.33;5.80;;;4.20;99.90;;;;;;5040768;28;20204;-66
2022/01/14 11:34:33;;;;;;;11.17;6.47;;;4.10;99.90;;;;;;5041283;28;21113;-67
2022/01/14 11:37:13;;;;;;;11.17;5.90;;;4.20;99.90;;;;;;5045117;28;20218;-67
2022/01/14 11:39:53;;;;;;;12.77;6.20;;;4.10;99.90;;;;;;5043060;28;20205;-67
2022/01/14 11:42:37;;;;;;;10.43;6.13;;;4.30;99.90;;;;;;5044886;28;20214;-67
2022/01/14 11:45:06;;;;;;;11.43;6.40;;;4.20;99.90;;;;;;5043099;28;20341;-67
2022/01/14 11:47:39;;;;;;;12.40;7.07;;;4.20;99.90;;;;;;5043715;28;20203;-66
2022/01/14 11:50:27;;;;;;;11.70;6.50;;;4.40;99.90;;;;;;5043757;28;20213;-66
2022/01/14 11:52:54;;;;;;;13.23;7.20;;;4.60;99.90;;;;;;5042376;28;20211;-67
2022/01/14 11:55:34;;;;;;;15.63;8.20;;;4.80;99.90;;;;;;5041915;28;20208;-66
2022/01/14 11:58:07;;;;;;;13.13;6.80;;;4.60;99.90;;;;;;5045470;28;20213;-67
2022/01/14 12:00:39;;;;;;;12.40;7.37;;;4.60;99.90;;;;;;5049463;28;20194;-67
2022/01/14 12:03:15;;;;;;;15.67;8.70;;;4.40;99.90;;;;;;5042290;28;20330;-67
2022/01/14 12:06:05;;;;;;;20.10;8.17;;;4.30;99.90;;;;;;5041900;28;20203;-67
2022/01/14 12:08:33;;;;;;;18.27;8.97;;;3.90;99.90;;;;;;5043217;28;20662;-67
2022/01/14 12:11:09;;;;;;;15.20;7.90;;;3.90;99.90;;;;;;5044313;28;20561;-67
2022/01/14 12:13:55;;;;;;;14.27;8.00;;;3.90;99.90;;;;;;5039233;28;20753;-67
2022/01/14 12:19:02;;;;;;;12.87;7.10;;;4.20;99.90;;;;;;5049698;28;20192;-68
2022/01/14 12:21:40;;;;;;;13.97;7.07;;;4.10;99.90;;;;;;5039763;28;20204;-68
2022/01/14 12:24:19;;;;;;;13.60;6.97;;;4.00;99.90;;;;;;5039374;28;20318;-67
2022/01/14 12:26:52;;;;;;;12.43;6.80;;;3.60;99.90;;;;;;5039600;28;20199;-68
2022/01/14 12:29:20;;;;;;;10.67;6.47;;;3.50;99.90;;;;;;5043990;28;20211;-67
2022/01/14 12:32:07;;;;;;;13.07;7.47;;;3.60;99.90;;;;;;5043731;28;20209;-68
2022/01/14 12:34:40;;;;;;;11.60;6.57;;;3.50;99.90;;;;;;5039405;28;20304;-66
2022/01/14 12:37:10;;;;;;;13.50;6.97;;;3.60;99.90;;;;;;5042061;28;20226;-66
2022/01/14 12:39:38;;;;;;;13.17;7.17;;;3.40;99.90;;;;;;5040599;28;20195;-68
2022/01/14 12:42:05;;;;;;;12.50;7.40;;;3.40;99.90;;;;;;5044071;28;20206;-68
2022/01/14 12:44:38;;;;;;;15.33;8.47;;;3.30;99.90;;;;;;5046711;28;20218;-68
2022/01/14 12:47:09;;;;;;;14.87;7.87;;;3.40;99.90;;;;;;5042377;28;20204;-68
2022/01/14 12:49:38;;;;;;;18.33;7.97;;;3.40;99.90;;;;;;5046951;28;20203;-68
2022/01/14 12:52:16;;;;;;;14.40;8.00;;;3.60;99.90;;;;;;5041998;28;20199;-68
2022/01/14 12:55:06;;;;;;;14.77;8.00;;;3.70;99.90;;;;;;5047019;28;20470;-67
2022/01/14 12:57:32;;;;;;;14.93;7.53;;;3.80;99.90;;;;;;5047270;28;20215;-67
2022/01/14 12:59:59;;;;;;;22.30;10.57;;;4.00;99.90;;;;;;5046406;28;20206;-66
2022/01/14 13:02:31;;;;;;;26.93;12.37;;;4.00;99.90;;;;;;5041213;28;20201;-66
2022/01/14 13:05:05;;;;;;;28.43;13.00;;;4.10;99.90;;;;;;5048416;28;20273;-69
2022/01/14 13:07:34;;;;;;;29.77;15.03;;;4.20;99.90;;;;;;5039795;28;20196;-69
2022/01/14 13:10:04;;;;;;;30.80;15.17;;;4.20;99.90;;;;;;5042296;28;20225;-70
2022/01/14 13:12:36;;;;;;;36.97;15.93;;;4.20;99.90;;;;;;5040707;28;20192;-70
2022/01/14 13:15:04;;;;;;;36.40;15.77;;;4.00;99.90;;;;;;5043137;28;20232;-70
2022/01/14 13:17:35;;;;;;;32.67;15.70;;;4.00;99.90;;;;;;5040837;28;20248;-70
2022/01/14 13:20:05;;;;;;;26.40;12.33;;;4.20;99.90;;;;;;5050195;28;20208;-70
2022/01/14 13:22:33;;;;;;;26.03;12.53;;;4.40;99.90;;;;;;5047392;28;20199;-69
2022/01/14 13:25:15;;;;;;;24.77;12.77;;;4.30;99.90;;;;;;5045939;28;20218;-70
2022/01/14 13:27:45;;;;;;;28.10;13.83;;;3.80;99.90;;;;;;5037149;28;20200;-71